TVF31GU LFPO-LFMN
Flight info
| Callsign | TVF31GU |
|---|---|
| Flight time | N/A |
| Altitude | 35000 |
| Route | LATRA DCT LAMUT DCT UTUVA DCT LERGA DCT LIQID DCT LATAM DCT TUNUR DCT NISAR |
| Aircraft | B738/M-SDE2E3FGHIRWXY/LB1 |
Departure
| Time | 2026-05-01 14:39 |
|---|---|
| Airport | Paris-Orly Airport (LFPO) |
Arrival
| Time | N/A |
|---|---|
| Airport | Nice-Côte d'Azur Airport (LFMN) |
| Time | Latitude | Longitude | Altitude | Speed | Heading |
|---|---|---|---|---|---|
| 2026-05-01 14:12 | 48.72751 | 2.35787 | 295 ft | 0 kts | 173° |
| 2026-05-01 14:29 | 48.72765 | 2.35784 | 298 ft | 4 kts | 162° |
| 2026-05-01 14:29 | 48.72786 | 2.35765 | 296 ft | 4 kts | 114° |
| 2026-05-01 14:30 | 48.72775 | 2.35656 | 297 ft | 4 kts | 91° |
| 2026-05-01 14:30 | 48.72780 | 2.35620 | 295 ft | 4 kts | 116° |
| 2026-05-01 14:30 | 48.72795 | 2.35589 | 297 ft | 4 kts | 148° |
| 2026-05-01 14:31 | 48.72823 | 2.35572 | 295 ft | 0 kts | 164° |
| 2026-05-01 14:33 | 48.72821 | 2.35573 | 295 ft | 1 kts | 164° |
| 2026-05-01 14:33 | 48.72796 | 2.35583 | 297 ft | 6 kts | 164° |
| 2026-05-01 14:34 | 48.72737 | 2.35608 | 293 ft | 11 kts | 165° |
| 2026-05-01 14:34 | 48.72656 | 2.35641 | 296 ft | 13 kts | 165° |
| 2026-05-01 14:34 | 48.72570 | 2.35678 | 296 ft | 13 kts | 164° |
| 2026-05-01 14:34 | 48.72484 | 2.35697 | 294 ft | 13 kts | 200° |
| 2026-05-01 14:35 | 48.72418 | 2.35618 | 293 ft | 13 kts | 183° |
| 2026-05-01 14:35 | 48.72329 | 2.35637 | 293 ft | 13 kts | 192° |
| 2026-05-01 14:35 | 48.72240 | 2.35598 | 293 ft | 13 kts | 179° |
| 2026-05-01 14:35 | 48.72152 | 2.35631 | 293 ft | 13 kts | 165° |
| 2026-05-01 14:36 | 48.72097 | 2.35658 | 295 ft | 1 kts | 157° |
| 2026-05-01 14:36 | 48.72092 | 2.35661 | 294 ft | 1 kts | 157° |
| 2026-05-01 14:36 | 48.72089 | 2.35663 | 294 ft | 0 kts | 157° |
| 2026-05-01 14:37 | 48.72086 | 2.35665 | 293 ft | 1 kts | 157° |
| 2026-05-01 14:37 | 48.72065 | 2.35683 | 279 ft | 7 kts | 145° |
| 2026-05-01 14:38 | 48.72015 | 2.35787 | 282 ft | 17 kts | 119° |
| 2026-05-01 14:38 | 48.71963 | 2.35956 | 280 ft | 18 kts | 92° |
| 2026-05-01 14:38 | 48.72001 | 2.36196 | 284 ft | 47 kts | 74° |
| 2026-05-01 14:38 | 48.72158 | 2.37034 | 281 ft | 115 kts | 74° |
| 2026-05-01 14:39 | 48.72409 | 2.38496 | 285 ft | 169 kts | 80° |
| 2026-05-01 14:39 | 48.72679 | 2.40316 | 765 ft | 181 kts | 75° |
| 2026-05-01 14:39 | 48.73031 | 2.42134 | 1424 ft | 186 kts | 75° |
| 2026-05-01 14:39 | 48.73386 | 2.43920 | 2246 ft | 179 kts | 75° |
| 2026-05-01 14:40 | 48.73765 | 2.45733 | 2796 ft | 189 kts | 75° |
| 2026-05-01 14:40 | 48.74113 | 2.47793 | 3081 ft | 212 kts | 86° |
| 2026-05-01 14:40 | 48.74162 | 2.50104 | 3353 ft | 226 kts | 93° |
| 2026-05-01 14:40 | 48.74204 | 2.52588 | 3571 ft | 242 kts | 90° |
| 2026-05-01 14:41 | 48.74285 | 2.55176 | 4015 ft | 247 kts | 92° |
| 2026-05-01 14:41 | 48.73963 | 2.57535 | 4280 ft | 258 kts | 122° |
| 2026-05-01 14:41 | 48.72716 | 2.59439 | 4878 ft | 256 kts | 152° |
| 2026-05-01 14:41 | 48.71058 | 2.60395 | 5654 ft | 256 kts | 166° |
| 2026-05-01 14:42 | 48.69320 | 2.61000 | 6398 ft | 259 kts | 167° |
| 2026-05-01 14:42 | 48.67547 | 2.61589 | 6985 ft | 266 kts | 167° |
| 2026-05-01 14:42 | 48.65727 | 2.62210 | 7719 ft | 268 kts | 168° |
| 2026-05-01 14:42 | 48.63866 | 2.62294 | 8468 ft | 272 kts | 192° |
| 2026-05-01 14:43 | 48.62081 | 2.61340 | 9298 ft | 274 kts | 203° |
| 2026-05-01 14:43 | 48.60364 | 2.60031 | 10133 ft | 278 kts | 205° |
| 2026-05-01 14:43 | 48.58653 | 2.58657 | 10667 ft | 292 kts | 205° |
| 2026-05-01 14:43 | 48.56774 | 2.57152 | 10843 ft | 317 kts | 205° |
| 2026-05-01 14:44 | 48.54810 | 2.55595 | 11025 ft | 338 kts | 205° |
| 2026-05-01 14:44 | 48.50510 | 2.52239 | 12161 ft | 352 kts | 205° |
| 2026-05-01 14:44 | 48.48314 | 2.50544 | 12912 ft | 354 kts | 205° |
| 2026-05-01 14:45 | 48.46105 | 2.48854 | 13643 ft | 358 kts | 203° |
| 2026-05-01 14:45 | 48.41408 | 2.46471 | 14194 ft | 359 kts | 193° |
| 2026-05-01 14:45 | 48.38996 | 2.45490 | 14220 ft | 362 kts | 193° |
| 2026-05-01 14:46 | 48.36571 | 2.44464 | 14790 ft | 365 kts | 194° |
| 2026-05-01 14:46 | 48.31703 | 2.42286 | 16371 ft | 366 kts | 194° |
| 2026-05-01 14:46 | 48.29205 | 2.41483 | 17004 ft | 368 kts | 181° |
| 2026-05-01 14:47 | 48.26663 | 2.41866 | 17664 ft | 369 kts | 164° |
| 2026-05-01 14:47 | 48.24240 | 2.43074 | 18375 ft | 372 kts | 160° |
| 2026-05-01 14:47 | 48.21801 | 2.44417 | 18965 ft | 375 kts | 159° |
| 2026-05-01 14:48 | 48.16863 | 2.47131 | 20134 ft | 381 kts | 160° |
| 2026-05-01 14:48 | 48.14370 | 2.48470 | 20716 ft | 383 kts | 160° |
| 2026-05-01 14:48 | 48.09308 | 2.51152 | 21836 ft | 388 kts | 160° |
| 2026-05-01 14:49 | 48.04155 | 2.53778 | 22909 ft | 394 kts | 161° |
| 2026-05-01 14:49 | 47.98949 | 2.56323 | 23963 ft | 397 kts | 161° |
| 2026-05-01 14:50 | 47.95403 | 2.58052 | 24422 ft | 404 kts | 162° |
| 2026-05-01 14:50 | 47.88191 | 2.61360 | 25525 ft | 409 kts | 163° |
| 2026-05-01 14:51 | 47.85452 | 2.62591 | 25915 ft | 412 kts | 163° |
| 2026-05-01 14:51 | 47.79917 | 2.65086 | 26648 ft | 417 kts | 163° |
| 2026-05-01 14:52 | 47.74358 | 2.67600 | 27205 ft | 426 kts | 163° |
| 2026-05-01 14:52 | 47.71504 | 2.68891 | 27476 ft | 430 kts | 163° |
| 2026-05-01 14:52 | 47.65756 | 2.71489 | 28242 ft | 433 kts | 163° |
| 2026-05-01 14:53 | 47.62868 | 2.72793 | 28566 ft | 436 kts | 163° |
| 2026-05-01 14:53 | 47.59954 | 2.74107 | 28841 ft | 439 kts | 163° |
| 2026-05-01 14:53 | 47.57024 | 2.75427 | 29159 ft | 441 kts | 163° |
| 2026-05-01 14:53 | 47.54071 | 2.76755 | 29415 ft | 444 kts | 164° |
| 2026-05-01 14:54 | 47.51085 | 2.78096 | 29602 ft | 449 kts | 164° |
| 2026-05-01 14:54 | 47.48142 | 2.79416 | 30012 ft | 448 kts | 164° |
| 2026-05-01 14:54 | 47.45158 | 2.80754 | 30499 ft | 445 kts | 165° |
| 2026-05-01 14:54 | 47.42195 | 2.82081 | 30868 ft | 445 kts | 165° |
| 2026-05-01 14:55 | 47.39222 | 2.83411 | 31147 ft | 446 kts | 165° |
| 2026-05-01 14:55 | 47.36243 | 2.84741 | 31414 ft | 448 kts | 165° |
| 2026-05-01 14:55 | 47.33253 | 2.86074 | 31624 ft | 451 kts | 167° |
| 2026-05-01 14:56 | 47.27159 | 2.88784 | 31893 ft | 460 kts | 167° |
| 2026-05-01 14:56 | 47.24112 | 2.90139 | 32376 ft | 454 kts | 167° |
| 2026-05-01 14:56 | 47.21116 | 2.91474 | 33044 ft | 446 kts | 167° |
| 2026-05-01 14:56 | 47.18143 | 2.92795 | 33356 ft | 447 kts | 167° |
| 2026-05-01 14:57 | 47.15146 | 2.94121 | 33503 ft | 451 kts | 167° |
| 2026-05-01 14:57 | 47.09085 | 2.96795 | 33869 ft | 457 kts | 168° |
| 2026-05-01 14:57 | 47.06043 | 2.98138 | 34225 ft | 455 kts | 168° |
| 2026-05-01 14:58 | 47.03016 | 2.99474 | 34573 ft | 453 kts | 168° |
| 2026-05-01 14:58 | 47.00038 | 3.00787 | 34837 ft | 453 kts | 168° |
| 2026-05-01 14:58 | 46.97011 | 3.02119 | 35071 ft | 453 kts | 167° |
| 2026-05-01 14:58 | 46.93986 | 3.03447 | 35219 ft | 455 kts | 167° |
| 2026-05-01 14:59 | 46.87851 | 3.06132 | 35214 ft | 464 kts | 167° |
| 2026-05-01 14:59 | 46.81623 | 3.08855 | 35217 ft | 468 kts | 167° |
| 2026-05-01 15:00 | 46.72235 | 3.12953 | 35217 ft | 470 kts | 167° |
| 2026-05-01 15:01 | 46.66004 | 3.15664 | 35214 ft | 470 kts | 167° |
| 2026-05-01 15:01 | 46.60787 | 3.17927 | 35208 ft | 470 kts | 167° |
| 2026-05-01 15:02 | 46.54531 | 3.20636 | 35207 ft | 469 kts | 167° |
| 2026-05-01 15:02 | 46.48274 | 3.23338 | 35195 ft | 467 kts | 167° |
| 2026-05-01 15:03 | 46.42039 | 3.26023 | 35215 ft | 467 kts | 167° |
| 2026-05-01 15:03 | 46.35851 | 3.28682 | 35200 ft | 466 kts | 167° |
| 2026-05-01 15:04 | 46.29625 | 3.31351 | 35182 ft | 465 kts | 167° |
| 2026-05-01 15:04 | 46.23408 | 3.34010 | 35187 ft | 465 kts | 167° |
| 2026-05-01 15:05 | 46.17231 | 3.36646 | 35188 ft | 465 kts | 167° |
| 2026-05-01 15:05 | 46.11024 | 3.39289 | 35174 ft | 465 kts | 166° |
| 2026-05-01 15:06 | 46.04831 | 3.41919 | 35193 ft | 465 kts | 166° |
| 2026-05-01 15:06 | 45.98670 | 3.44530 | 35184 ft | 465 kts | 166° |
| 2026-05-01 15:07 | 45.92464 | 3.47153 | 35200 ft | 464 kts | 166° |
| 2026-05-01 15:07 | 45.86266 | 3.49767 | 35204 ft | 464 kts | 166° |
| 2026-05-01 15:08 | 45.80063 | 3.52377 | 35200 ft | 464 kts | 166° |
| 2026-05-01 15:08 | 45.73876 | 3.54975 | 35206 ft | 463 kts | 166° |
| 2026-05-01 15:09 | 45.67746 | 3.57542 | 35219 ft | 462 kts | 166° |
| 2026-05-01 15:09 | 45.61561 | 3.60127 | 35221 ft | 462 kts | 166° |
| 2026-05-01 15:10 | 45.55392 | 3.62699 | 35225 ft | 461 kts | 166° |
| 2026-05-01 15:10 | 45.46157 | 3.66539 | 35223 ft | 461 kts | 166° |
| 2026-05-01 15:11 | 45.36921 | 3.70367 | 35225 ft | 461 kts | 166° |
| 2026-05-01 15:12 | 45.30806 | 3.72894 | 35219 ft | 460 kts | 165° |
| 2026-05-01 15:12 | 45.25182 | 3.77232 | 35261 ft | 467 kts | 140° |
| 2026-05-01 15:12 | 45.22989 | 3.80628 | 35252 ft | 471 kts | 126° |
| 2026-05-01 15:14 | 45.14229 | 4.00376 | 35252 ft | 474 kts | 124° |
| 2026-05-01 15:14 | 45.08824 | 4.12126 | 35246 ft | 474 kts | 125° |
| 2026-05-01 15:15 | 45.01339 | 4.27390 | 35253 ft | 472 kts | 134° |
| 2026-05-01 15:16 | 44.92327 | 4.40946 | 35255 ft | 473 kts | 135° |
| 2026-05-01 15:18 | 44.81174 | 4.57947 | 35234 ft | 473 kts | 134° |
| 2026-05-01 15:19 | 44.72373 | 4.71329 | 35246 ft | 474 kts | 134° |
| 2026-05-01 15:19 | 44.65622 | 4.81548 | 35245 ft | 475 kts | 135° |
| 2026-05-01 15:20 | 44.59004 | 4.91894 | 35254 ft | 476 kts | 133° |
| 2026-05-01 15:21 | 44.54655 | 4.98899 | 35255 ft | 476 kts | 132° |
| 2026-05-01 15:21 | 44.52465 | 5.02394 | 35060 ft | 478 kts | 133° |
| 2026-05-01 15:21 | 44.50292 | 5.05846 | 34517 ft | 476 kts | 133° |
| 2026-05-01 15:21 | 44.48107 | 5.09315 | 33884 ft | 473 kts | 133° |
| 2026-05-01 15:22 | 44.43812 | 5.16160 | 32852 ft | 463 kts | 132° |
| 2026-05-01 15:22 | 44.41695 | 5.19536 | 32371 ft | 458 kts | 133° |
| 2026-05-01 15:22 | 44.39602 | 5.22864 | 31896 ft | 454 kts | 133° |
| 2026-05-01 15:23 | 44.37518 | 5.26164 | 31425 ft | 449 kts | 134° |
| 2026-05-01 15:23 | 44.35256 | 5.29139 | 30949 ft | 444 kts | 143° |
| 2026-05-01 15:23 | 44.32827 | 5.31762 | 30503 ft | 439 kts | 145° |
| 2026-05-01 15:23 | 44.30387 | 5.34284 | 29993 ft | 435 kts | 145° |
| 2026-05-01 15:24 | 44.27996 | 5.36769 | 29512 ft | 434 kts | 144° |
| 2026-05-01 15:24 | 44.25581 | 5.39327 | 29053 ft | 435 kts | 143° |
| 2026-05-01 15:24 | 44.23185 | 5.41907 | 28581 ft | 434 kts | 143° |
| 2026-05-01 15:24 | 44.20814 | 5.44486 | 28126 ft | 430 kts | 143° |
| 2026-05-01 15:25 | 44.18460 | 5.47048 | 27664 ft | 427 kts | 143° |
| 2026-05-01 15:25 | 44.16124 | 5.49584 | 27204 ft | 423 kts | 143° |
| 2026-05-01 15:25 | 44.13843 | 5.52056 | 26776 ft | 420 kts | 144° |
| 2026-05-01 15:25 | 44.11550 | 5.54538 | 26338 ft | 416 kts | 144° |
| 2026-05-01 15:26 | 44.09262 | 5.57009 | 25906 ft | 413 kts | 143° |
| 2026-05-01 15:26 | 44.07002 | 5.59451 | 25477 ft | 410 kts | 143° |
| 2026-05-01 15:26 | 44.04758 | 5.61872 | 25052 ft | 406 kts | 143° |
| 2026-05-01 15:26 | 44.02535 | 5.64270 | 24632 ft | 403 kts | 144° |
| 2026-05-01 15:27 | 44.00332 | 5.66644 | 24214 ft | 399 kts | 143° |
| 2026-05-01 15:27 | 43.98146 | 5.68997 | 23772 ft | 395 kts | 143° |
| 2026-05-01 15:27 | 43.95981 | 5.71325 | 23284 ft | 392 kts | 142° |
| 2026-05-01 15:28 | 43.91728 | 5.75894 | 22436 ft | 385 kts | 142° |
| 2026-05-01 15:28 | 43.89618 | 5.78159 | 22030 ft | 381 kts | 142° |
| 2026-05-01 15:28 | 43.87529 | 5.80396 | 21627 ft | 376 kts | 142° |
| 2026-05-01 15:29 | 43.83456 | 5.84751 | 20849 ft | 367 kts | 142° |
| 2026-05-01 15:29 | 43.81443 | 5.86898 | 20463 ft | 363 kts | 142° |
| 2026-05-01 15:29 | 43.77479 | 5.91119 | 19723 ft | 356 kts | 142° |
| 2026-05-01 15:30 | 43.73592 | 5.95256 | 18977 ft | 350 kts | 142° |
| 2026-05-01 15:31 | 43.65964 | 6.03356 | 17442 ft | 342 kts | 142° |
| 2026-05-01 15:31 | 43.62180 | 6.07361 | 16726 ft | 341 kts | 142° |
| 2026-05-01 15:32 | 43.58999 | 6.12052 | 16009 ft | 342 kts | 115° |
| 2026-05-01 15:32 | 43.57268 | 6.18189 | 15306 ft | 343 kts | 109° |
| 2026-05-01 15:33 | 43.54809 | 6.27426 | 14213 ft | 338 kts | 110° |
| 2026-05-01 15:34 | 43.52341 | 6.36402 | 13002 ft | 329 kts | 110° |